Time;durP1;ratioP1;P1;durP2;ratioP2;P2;SDS_P1;SDS_P2;PMS_P1;PMS_P2;Temp;Humidity;BMP_temperature;BMP_pressure;BME280_temperature;BME280_humidity;BME280_pressure;Samples;Min_cycle;Max_cycle;Signal;HPM_P1;HPM_P2
2022/06/24 00:00:01;;;;;;;5.45;3.80;;;;;;;;;;4993632;28;20034;-75
2022/06/24 00:02:26;;;;;;;8.07;4.45;;;;;;;;;;4993519;28;20549;-75
2022/06/24 00:04:54;;;;;;;7.28;4.00;;;;;;;;;;4993815;28;20026;-76
2022/06/24 00:07:20;;;;;;;6.93;3.90;;;;;;;;;;4993757;28;20033;-75
2022/06/24 00:09:46;;;;;;;6.25;4.85;;;;;;;;;;4993583;28;20035;-75
2022/06/24 00:12:13;;;;;;;7.13;5.30;;;;;;;;;;4993600;28;20034;-75
2022/06/24 00:14:40;;;;;;;6.72;5.40;;;;;;;;;;4993744;28;20057;-75
2022/06/24 00:17:08;;;;;;;10.00;5.68;;;;;;;;;;4977014;28;20026;-75
2022/06/24 00:19:35;;;;;;;9.38;4.88;;;;;;;;;;4993249;28;20105;-75
2022/06/24 00:22:12;;;;;;;7.85;5.00;;;;;;;;;;4976919;28;20030;-75
2022/06/24 00:24:38;;;;;;;5.85;4.60;;;;;;;;;;4993547;28;20026;-75
2022/06/24 00:27:17;;;;;;;7.97;4.53;;;;;;;;;;5001547;28;20104;-75
2022/06/24 00:29:42;;;;;;;8.02;4.68;;;;;;;;;;4996819;28;20482;-75
2022/06/24 00:32:08;;;;;;;6.22;4.45;;;;;;;;;;4980059;28;20041;-76
2022/06/24 00:34:35;;;;;;;8.63;4.68;;;;;;;;;;4979987;28;20014;-75
2022/06/24 00:37:24;;;;;;;7.60;3.97;;;;;;;;;;4980270;28;20494;-75
2022/06/24 00:39:50;;;;;;;7.32;4.22;;;;;;;;;;4996724;28;20479;-75
2022/06/24 00:42:19;;;;;;;7.25;4.22;;;;;;;;;;4996223;28;20033;-75
2022/06/24 00:45:07;;;;;;;7.22;4.22;;;;;;;;;;4979788;28;20398;-75
2022/06/24 00:47:34;;;;;;;9.18;4.53;;;;;;;;;;5013592;28;20018;-75
2022/06/24 00:50:03;;;;;;;5.10;4.07;;;;;;;;;;4979830;28;20136;-75
2022/06/24 00:52:28;;;;;;;5.82;3.95;;;;;;;;;;4996147;28;20483;-75
2022/06/24 00:54:53;;;;;;;5.85;3.90;;;;;;;;;;4979861;28;20079;-75
2022/06/24 00:57:19;;;;;;;6.78;3.80;;;;;;;;;;5012659;28;20120;-75
2022/06/24 00:59:46;;;;;;;6.18;4.00;;;;;;;;;;4995898;28;20033;-75
2022/06/24 01:02:14;;;;;;;7.50;3.72;;;;;;;;;;4995789;28;20387;-75
2022/06/24 01:04:39;;;;;;;6.80;4.20;;;;;;;;;;4996088;28;20034;-76
2022/06/24 01:07:05;;;;;;;6.93;4.18;;;;;;;;;;4996184;28;20033;-75
2022/06/24 01:09:30;;;;;;;6.13;3.63;;;;;;;;;;4995936;28;20036;-75
2022/06/24 01:11:56;;;;;;;5.18;3.40;;;;;;;;;;5013290;28;20397;-75
2022/06/24 01:14:21;;;;;;;5.35;3.80;;;;;;;;;;4995677;28;20120;-75
2022/06/24 01:16:47;;;;;;;7.55;3.65;;;;;;;;;;4995951;28;20114;-75
2022/06/24 01:19:13;;;;;;;6.32;3.55;;;;;;;;;;4979464;28;20065;-75
2022/06/24 01:21:39;;;;;;;7.90;3.25;;;;;;;;;;4995650;28;20034;-75
2022/06/24 01:24:07;;;;;;;6.07;3.28;;;;;;;;;;4995813;28;20033;-75
2022/06/24 01:26:32;;;;;;;5.07;3.67;;;;;;;;;;4995427;28;20078;-75
2022/06/24 01:28:58;;;;;;;4.50;3.45;;;;;;;;;;5013123;28;20397;-75
2022/06/24 01:31:23;;;;;;;3.58;2.97;;;;;;;;;;5013197;28;20033;-75
2022/06/24 01:33:49;;;;;;;3.50;3.00;;;;;;;;;;4979268;28;20064;-75
2022/06/24 01:36:14;;;;;;;8.63;3.60;;;;;;;;;;4995447;28;20054;-75
2022/06/24 01:38:39;;;;;;;7.05;3.08;;;;;;;;;;4995430;28;20053;-75
2022/06/24 01:41:05;;;;;;;6.07;3.50;;;;;;;;;;4995452;28;20497;-75
2022/06/24 01:43:30;;;;;;;5.72;2.90;;;;;;;;;;5013124;28;20029;-75
2022/06/24 01:45:56;;;;;;;4.10;2.72;;;;;;;;;;5013260;28;20494;-76
2022/06/24 01:48:21;;;;;;;3.50;2.88;;;;;;;;;;5013174;28;20042;-76
2022/06/24 01:50:46;;;;;;;5.53;3.00;;;;;;;;;;5012909;28;20038;-75
2022/06/24 01:53:12;;;;;;;5.60;3.05;;;;;;;;;;4978950;28;20034;-76
2022/06/24 01:55:37;;;;;;;3.85;2.90;;;;;;;;;;4995305;28;20029;-75
2022/06/24 01:58:03;;;;;;;4.68;2.60;;;;;;;;;;5013063;28;20037;-75
2022/06/24 02:00:28;;;;;;;3.45;2.50;;;;;;;;;;4979047;28;20061;-76
2022/06/24 02:02:54;;;;;;;3.85;2.65;;;;;;;;;;5012854;28;20037;-75
2022/06/24 02:05:19;;;;;;;7.22;3.38;;;;;;;;;;5012748;28;20034;-76
2022/06/24 02:07:45;;;;;;;3.70;2.90;;;;;;;;;;4978936;28;20401;-75
2022/06/24 02:15:38;;;;;;;3.72;2.80;;;;;;;;;;5016669;28;19920;-76
2022/06/24 02:18:04;;;;;;;4.30;2.80;;;;;;;;;;4998979;28;20037;-75
2022/06/24 02:20:29;;;;;;;3.22;2.83;;;;;;;;;;4998766;28;20046;-75
2022/06/24 02:22:54;;;;;;;3.83;2.40;;;;;;;;;;4982345;28;20034;-75
2022/06/24 02:25:20;;;;;;;5.50;2.78;;;;;;;;;;5016098;28;20041;-75
2022/06/24 02:27:46;;;;;;;3.88;2.78;;;;;;;;;;4982235;28;20093;-75
2022/06/24 02:30:12;;;;;;;5.07;2.58;;;;;;;;;;5015938;28;20040;-75
2022/06/24 02:32:37;;;;;;;4.55;2.83;;;;;;;;;;4966777;28;20037;-75
2022/06/24 02:35:03;;;;;;;2.47;2.22;;;;;;;;;;5016275;28;20061;-76
2022/06/24 02:37:28;;;;;;;4.20;2.20;;;;;;;;;;5016275;28;20030;-76
2022/06/24 02:39:54;;;;;;;2.95;1.98;;;;;;;;;;4998641;28;20033;-75
2022/06/24 02:42:19;;;;;;;2.88;1.70;;;;;;;;;;5016026;28;20140;-75
2022/06/24 02:44:44;;;;;;;2.85;2.20;;;;;;;;;;4998564;28;20176;-76
2022/06/24 02:47:10;;;;;;;2.08;1.80;;;;;;;;;;4998573;28;20030;-75
2022/06/24 02:49:35;;;;;;;2.83;2.17;;;;;;;;;;4998855;28;20391;-75
2022/06/24 02:52:00;;;;;;;3.28;2.30;;;;;;;;;;5015661;28;20029;-75
2022/06/24 02:54:26;;;;;;;4.72;1.80;;;;;;;;;;5015577;28;20037;-75
2022/06/24 02:56:51;;;;;;;3.65;2.25;;;;;;;;;;5015652;28;20045;-75
2022/06/24 02:59:16;;;;;;;3.22;1.90;;;;;;;;;;4998321;28;20038;-76
2022/06/24 03:01:42;;;;;;;2.55;1.90;;;;;;;;;;5015830;28;20044;-76
2022/06/24 03:04:07;;;;;;;3.38;1.80;;;;;;;;;;4998403;28;20066;-75
2022/06/24 03:06:32;;;;;;;4.88;1.80;;;;;;;;;;4981620;28;20036;-75
2022/06/24 03:08:58;;;;;;;2.13;1.70;;;;;;;;;;4981748;28;20057;-76
2022/06/24 03:11:23;;;;;;;2.22;1.70;;;;;;;;;;5015346;28;20033;-75
2022/06/24 03:13:48;;;;;;;2.17;1.90;;;;;;;;;;4981466;28;20029;-75
2022/06/24 03:16:14;;;;;;;2.63;1.83;;;;;;;;;;4981564;28;20038;-76
2022/06/24 03:18:39;;;;;;;5.13;2.05;;;;;;;;;;4965319;28;20413;-75
2022/06/24 03:21:07;;;;;;;2.30;1.70;;;;;;;;;;4996931;28;20060;-75
2022/06/24 03:23:33;;;;;;;2.15;1.80;;;;;;;;;;4982067;28;20056;-75
2022/06/24 03:26:01;;;;;;;2.45;1.60;;;;;;;;;;4997818;28;20033;-75
2022/06/24 03:28:27;;;;;;;2.72;1.70;;;;;;;;;;4997320;28;20050;-75
2022/06/24 03:30:52;;;;;;;2.28;1.65;;;;;;;;;;4997362;28;20041;-75
2022/06/24 03:33:17;;;;;;;3.53;1.63;;;;;;;;;;4980985;28;20034;-75
2022/06/24 03:35:43;;;;;;;2.45;1.60;;;;;;;;;;5015010;28;20034;-76
2022/06/24 03:38:08;;;;;;;3.28;1.67;;;;;;;;;;5014676;28;20038;-75
2022/06/24 03:40:34;;;;;;;2.50;1.70;;;;;;;;;;4996904;28;20463;-75
2022/06/24 03:42:59;;;;;;;2.60;1.67;;;;;;;;;;5014852;28;20038;-75
2022/06/24 03:45:24;;;;;;;2.67;1.52;;;;;;;;;;4996918;28;20474;-75
2022/06/24 03:47:50;;;;;;;2.10;1.70;;;;;;;;;;5014799;28;20036;-75
2022/06/24 03:50:16;;;;;;;2.45;1.35;;;;;;;;;;4980806;28;20048;-75
2022/06/24 03:52:41;;;;;;;2.70;1.70;;;;;;;;;;4980693;28;20037;-75
2022/06/24 03:55:07;;;;;;;2.13;1.60;;;;;;;;;;4996812;28;20030;-75
2022/06/24 03:57:32;;;;;;;2.60;1.30;;;;;;;;;;4997181;28;20029;-75
2022/06/24 03:59:58;;;;;;;1.95;1.35;;;;;;;;;;5014333;28;20402;-75
2022/06/24 04:02:23;;;;;;;2.00;1.63;;;;;;;;;;4997050;28;20108;-75
2022/06/24 04:04:49;;;;;;;4.53;1.50;;;;;;;;;;5014372;28;20129;-75
2022/06/24 04:07:14;;;;;;;1.85;1.50;;;;;;;;;;4996556;28;20038;-75
2022/06/24 04:09:39;;;;;;;2.25;1.50;;;;;;;;;;4996122;28;20037;-76
2022/06/24 04:12:05;;;;;;;3.67;1.45;;;;;;;;;;5014470;28;20113;-75
2022/06/24 04:17:14;;;;;;;5.05;1.88;;;;;;;;;;5014403;28;20492;-75
2022/06/24 04:19:39;;;;;;;5.90;2.80;;;;;;;;;;4980358;28;20029;-76
2022/06/24 04:22:05;;;;;;;5.78;3.15;;;;;;;;;;4996535;28;20030;-77
2022/06/24 04:24:30;;;;;;;6.25;2.47;;;;;;;;;;4980233;28;20450;-76
2022/06/24 04:26:56;;;;;;;7.07;2.60;;;;;;;;;;4996314;28;20053;-76
2022/06/24 04:29:21;;;;;;;5.72;2.15;;;;;;;;;;4996232;28;20036;-76
2022/06/24 04:31:47;;;;;;;5.57;2.53;;;;;;;;;;4995708;28;20033;-76
2022/06/24 04:34:12;;;;;;;31.15;9.38;;;;;;;;;;5013333;28;20030;-74
2022/06/24 04:36:37;;;;;;;21.20;8.05;;;;;;;;;;5013498;28;20038;-74
2022/06/24 04:39:03;;;;;;;19.75;5.45;;;;;;;;;;4995500;28;20112;-74
2022/06/24 04:41:29;;;;;;;19.23;5.35;;;;;;;;;;5013189;28;20042;-75
2022/06/24 04:43:54;;;;;;;13.60;5.13;;;;;;;;;;5013182;28;20030;-75
2022/06/24 04:46:20;;;;;;;15.52;4.72;;;;;;;;;;4995486;28;20029;-75
2022/06/24 04:48:46;;;;;;;8.27;3.70;;;;;;;;;;5013378;28;20033;-77
2022/06/24 04:51:12;;;;;;;12.55;4.22;;;;;;;;;;5012996;28;20112;-77
2022/06/24 04:53:37;;;;;;;8.65;3.90;;;;;;;;;;5013121;28;20045;-76
2022/06/24 04:56:03;;;;;;;7.13;2.40;;;;;;;;;;5013221;28;20089;-76
2022/06/24 04:58:28;;;;;;;6.53;2.50;;;;;;;;;;5012982;28;20034;-77
2022/06/24 05:00:54;;;;;;;4.38;2.10;;;;;;;;;;5013390;28;20028;-76
2022/06/24 05:03:19;;;;;;;6.63;2.58;;;;;;;;;;4996144;28;20103;-76
2022/06/24 05:05:44;;;;;;;5.90;2.38;;;;;;;;;;4995555;28;20022;-77
2022/06/24 05:08:10;;;;;;;4.28;2.15;;;;;;;;;;5013378;28;20037;-77
2022/06/24 05:10:35;;;;;;;4.13;2.10;;;;;;;;;;4995896;28;20026;-77
2022/06/24 05:13:00;;;;;;;5.85;2.80;;;;;;;;;;4995485;28;20036;-78
2022/06/24 05:15:26;;;;;;;11.95;3.58;;;;;;;;;;4978984;28;20330;-78
2022/06/24 05:17:51;;;;;;;6.30;2.60;;;;;;;;;;4979284;28;20057;-77
2022/06/24 05:20:17;;;;;;;9.65;2.97;;;;;;;;;;4995950;28;20026;-78
2022/06/24 05:22:42;;;;;;;9.40;3.40;;;;;;;;;;5012978;28;20479;-77
2022/06/24 05:25:08;;;;;;;6.03;2.50;;;;;;;;;;5012597;28;20025;-77
2022/06/24 05:27:34;;;;;;;7.00;2.72;;;;;;;;;;4994940;28;20439;-77
2022/06/24 05:29:59;;;;;;;6.25;2.53;;;;;;;;;;4978772;28;20041;-77
2022/06/24 05:32:25;;;;;;;6.53;2.78;;;;;;;;;;5012710;28;20037;-75
2022/06/24 05:34:51;;;;;;;5.13;3.00;;;;;;;;;;4994953;28;20414;-76
2022/06/24 05:37:16;;;;;;;10.80;2.97;;;;;;;;;;5012767;28;20033;-76
2022/06/24 05:39:42;;;;;;;7.93;3.30;;;;;;;;;;5012878;28;20037;-76
2022/06/24 05:42:07;;;;;;;5.75;3.13;;;;;;;;;;5013052;28;20096;-76
2022/06/24 05:44:32;;;;;;;7.05;2.72;;;;;;;;;;4981453;28;20034;-76
2022/06/24 05:46:58;;;;;;;5.15;2.63;;;;;;;;;;4999098;28;20068;-76
2022/06/24 05:49:23;;;;;;;4.90;2.03;;;;;;;;;;4998927;28;20026;-77
2022/06/24 05:51:49;;;;;;;3.95;2.40;;;;;;;;;;4999085;28;20045;-76
2022/06/24 05:56:58;;;;;;;;;;;;;;;;;;5002432;28;20489;-77
2022/06/24 05:59:24;;;;;;;5.05;2.25;;;;;;;;;;5015484;28;19913;-77
2022/06/24 06:01:49;;;;;;;3.72;1.95;;;;;;;;;;5016726;28;20478;-76
2022/06/24 06:04:15;;;;;;;4.43;2.00;;;;;;;;;;4998599;28;20050;-77
2022/06/24 06:06:40;;;;;;;3.33;1.90;;;;;;;;;;4998561;28;20168;-76
2022/06/24 06:09:06;;;;;;;5.78;2.20;;;;;;;;;;4998230;28;20030;-76
2022/06/24 06:11:32;;;;;;;5.15;2.00;;;;;;;;;;4998433;28;20026;-76
2022/06/24 06:13:57;;;;;;;4.70;1.90;;;;;;;;;;5016154;28;20034;-76
2022/06/24 06:16:23;;;;;;;3.58;1.80;;;;;;;;;;4998280;28;20036;-78
2022/06/24 06:18:49;;;;;;;4.68;1.85;;;;;;;;;;4998326;28;20033;-77
2022/06/24 06:21:15;;;;;;;3.30;1.83;;;;;;;;;;4998381;28;20420;-76
2022/06/24 06:23:41;;;;;;;2.25;1.85;;;;;;;;;;4981879;28;20110;-76
2022/06/24 06:26:09;;;;;;;2.28;1.80;;;;;;;;;;4998327;28;20457;-78
2022/06/24 06:28:35;;;;;;;6.40;2.15;;;;;;;;;;4998051;28;20046;-77
2022/06/24 06:31:00;;;;;;;2.97;1.80;;;;;;;;;;4998299;28;20030;-77
2022/06/24 06:33:26;;;;;;;3.05;1.88;;;;;;;;;;4998430;28;20109;-76
2022/06/24 06:35:52;;;;;;;3.00;1.60;;;;;;;;;;4998221;28;20029;-75
2022/06/24 06:38:17;;;;;;;6.97;2.05;;;;;;;;;;4998345;28;20022;-77
2022/06/24 06:40:43;;;;;;;5.30;2.10;;;;;;;;;;4981669;28;20030;-75
2022/06/24 06:43:09;;;;;;;4.28;1.80;;;;;;;;;;4981868;28;20362;-76
2022/06/24 06:45:36;;;;;;;3.78;1.70;;;;;;;;;;4998220;28;20033;-76
2022/06/24 06:48:01;;;;;;;4.28;2.10;;;;;;;;;;4997936;28;20026;-77
2022/06/24 06:50:26;;;;;;;4.05;1.80;;;;;;;;;;4965656;28;20052;-76
2022/06/24 06:52:52;;;;;;;5.70;2.00;;;;;;;;;;4998120;28;20108;-77
2022/06/24 06:55:18;;;;;;;5.25;2.13;;;;;;;;;;4996436;28;20120;-77
2022/06/24 06:57:43;;;;;;;3.28;1.67;;;;;;;;;;5015339;28;20030;-77
2022/06/24 07:00:09;;;;;;;2.50;1.65;;;;;;;;;;5015283;28;20451;-77
2022/06/24 07:02:36;;;;;;;3.30;1.52;;;;;;;;;;5015065;28;20098;-77
2022/06/24 07:05:02;;;;;;;2.92;1.73;;;;;;;;;;4997633;28;20061;-78
2022/06/24 07:07:27;;;;;;;3.22;1.50;;;;;;;;;;5015460;28;20061;-77
2022/06/24 07:09:54;;;;;;;3.28;1.77;;;;;;;;;;4997823;28;20505;-77
2022/06/24 07:12:20;;;;;;;3.00;1.70;;;;;;;;;;5017901;28;20032;-76
2022/06/24 07:14:45;;;;;;;4.57;1.73;;;;;;;;;;5000519;28;20014;-77
2022/06/24 07:17:11;;;;;;;3.45;1.75;;;;;;;;;;4998592;28;20026;-77
2022/06/24 07:19:36;;;;;;;3.85;1.92;;;;;;;;;;4981363;28;20036;-77
2022/06/24 07:22:02;;;;;;;4.43;1.98;;;;;;;;;;4980811;28;20034;-77
2022/06/24 07:24:28;;;;;;;2.88;1.48;;;;;;;;;;4967198;28;20112;-78
2022/06/24 07:26:53;;;;;;;4.15;1.95;;;;;;;;;;5015298;28;20096;-77
2022/06/24 07:29:20;;;;;;;5.03;2.00;;;;;;;;;;5014842;28;20073;-78
2022/06/24 07:31:47;;;;;;;2.03;1.70;;;;;;;;;;4997152;28;20080;-77
2022/06/24 07:34:14;;;;;;;2.67;1.50;;;;;;;;;;4997676;28;20018;-77
2022/06/24 07:36:40;;;;;;;3.28;1.70;;;;;;;;;;4997073;28;20037;-77
2022/06/24 07:39:05;;;;;;;2.22;1.50;;;;;;;;;;4980451;28;20030;-79
2022/06/24 07:41:31;;;;;;;3.42;2.00;;;;;;;;;;4996633;28;20448;-78
2022/06/24 07:43:56;;;;;;;3.38;2.00;;;;;;;;;;4980633;28;20056;-77
2022/06/24 07:46:21;;;;;;;4.25;2.33;;;;;;;;;;4997090;28;20422;-77
2022/06/24 07:48:47;;;;;;;5.72;2.17;;;;;;;;;;4980970;28;20041;-78
2022/06/24 07:51:16;;;;;;;1.77;1.30;;;;;;;;;;5014331;28;20029;-78
2022/06/24 07:53:42;;;;;;;4.53;2.13;;;;;;;;;;4996432;28;20125;-79
2022/06/24 07:58:52;;;;;;;3.92;2.00;;;;;;;;;;4999271;28;20103;-79
2022/06/24 08:01:17;;;;;;;3.30;2.20;;;;;;;;;;4996791;28;20489;-79
2022/06/24 08:03:43;;;;;;;6.72;2.28;;;;;;;;;;4997569;28;20079;-76
2022/06/24 08:06:09;;;;;;;2.60;1.63;;;;;;;;;;4984690;28;20494;-82
2022/06/24 08:08:35;;;;;;;2.03;1.77;;;;;;;;;;4987220;28;20046;-77
2022/06/24 08:11:01;;;;;;;2.80;1.80;;;;;;;;;;5002604;28;20038;-76
2022/06/24 08:13:27;;;;;;;2.50;1.50;;;;;;;;;;4985614;28;20034;-78
2022/06/24 08:15:53;;;;;;;2.70;1.70;;;;;;;;;;4964256;28;20042;-76
2022/06/24 08:18:19;;;;;;;3.65;1.63;;;;;;;;;;4980008;28;20034;-76
2022/06/24 08:20:44;;;;;;;4.00;1.60;;;;;;;;;;4946113;28;20091;-76
2022/06/24 08:23:10;;;;;;;5.10;1.55;;;;;;;;;;4979113;28;20106;-75
2022/06/24 08:25:36;;;;;;;7.10;1.77;;;;;;;;;;4997598;28;20027;-76
2022/06/24 08:28:02;;;;;;;4.38;1.58;;;;;;;;;;4996861;28;20069;-77
2022/06/24 08:30:28;;;;;;;2.63;1.80;;;;;;;;;;4947650;28;20495;-76
2022/06/24 08:32:53;;;;;;;14.00;1.88;;;;;;;;;;4962698;28;20030;-77
2022/06/24 08:35:19;;;;;;;2.53;1.67;;;;;;;;;;4971394;28;20529;-77
2022/06/24 08:37:45;;;;;;;5.40;1.48;;;;;;;;;;4974350;28;20039;-77
2022/06/24 08:40:11;;;;;;;5.03;1.42;;;;;;;;;;4956406;28;20403;-77
2022/06/24 08:42:38;;;;;;;2.20;1.55;;;;;;;;;;4974061;28;20406;-76
2022/06/24 08:45:04;;;;;;;3.92;1.58;;;;;;;;;;4956261;28;20444;-76
2022/06/24 08:47:30;;;;;;;2.90;1.42;;;;;;;;;;4973814;28;20031;-77
2022/06/24 08:49:56;;;;;;;2.55;1.50;;;;;;;;;;4957007;28;20089;-76
2022/06/24 08:52:21;;;;;;;3.50;1.58;;;;;;;;;;4956272;28;20447;-77
2022/06/24 08:54:49;;;;;;;2.88;1.67;;;;;;;;;;4972535;28;20034;-77
2022/06/24 08:57:14;;;;;;;2.63;1.40;;;;;;;;;;4973636;28;20027;-76
2022/06/24 08:59:42;;;;;;;1.60;1.50;;;;;;;;;;4972529;28;20035;-77
2022/06/24 09:02:08;;;;;;;3.42;1.60;;;;;;;;;;4973700;28;20039;-77
2022/06/24 09:04:33;;;;;;;2.53;1.40;;;;;;;;;;4973668;28;20392;-77
2022/06/24 09:07:00;;;;;;;3.10;1.52;;;;;;;;;;4991842;28;20041;-77
2022/06/24 09:09:26;;;;;;;4.90;2.03;;;;;;;;;;4993090;28;20038;-77
2022/06/24 09:11:57;;;;;;;3.35;1.83;;;;;;;;;;4959793;28;20121;-77
2022/06/24 09:14:24;;;;;;;1.77;1.38;;;;;;;;;;4993599;28;20049;-78
2022/06/24 09:16:49;;;;;;;6.75;1.80;;;;;;;;;;4977202;28;20034;-78
2022/06/24 09:19:15;;;;;;;3.35;1.83;;;;;;;;;;4959945;28;20367;-77
2022/06/24 09:21:42;;;;;;;4.40;1.60;;;;;;;;;;4960488;28;20030;-78
2022/06/24 09:24:09;;;;;;;3.25;1.60;;;;;;;;;;4960519;28;20030;-78
2022/06/24 09:26:37;;;;;;;2.83;1.90;;;;;;;;;;4961604;28;20033;-78
2022/06/24 09:29:06;;;;;;;4.75;1.80;;;;;;;;;;4979481;28;20371;-79
2022/06/24 09:31:31;;;;;;;4.00;1.63;;;;;;;;;;4979764;28;20454;-79
2022/06/24 09:34:06;;;;;;;3.53;1.90;;;;;;;;;;4996611;28;20029;-79
2022/06/24 09:36:33;;;;;;;4.18;1.70;;;;;;;;;;4998061;28;20386;-78
2022/06/24 09:39:04;;;;;;;2.40;1.77;;;;;;;;;;4999819;28;20037;-79
2022/06/24 09:41:53;;;;;;;2.25;1.63;;;;;;;;;;4997010;28;20033;-79
2022/06/24 09:44:18;;;;;;;2.50;2.10;;;;;;;;;;5014846;28;20022;-78
2022/06/24 09:46:44;;;;;;;3.13;2.03;;;;;;;;;;4978707;28;20049;-77
2022/06/24 09:49:12;;;;;;;2.17;1.90;;;;;;;;;;4978875;28;20103;-79
2022/06/24 09:51:39;;;;;;;2.47;2.08;;;;;;;;;;4995230;28;20029;-78
2022/06/24 09:54:05;;;;;;;7.13;2.00;;;;;;;;;;5014889;28;20026;-79
2022/06/24 09:56:31;;;;;;;2.42;1.98;;;;;;;;;;5012506;28;20080;-78
2022/06/24 10:01:42;;;;;;;2.30;1.83;;;;;;;;;;4999080;28;20064;-79
2022/06/24 10:04:15;;;;;;;2.95;2.10;;;;;;;;;;4999376;28;20084;-78
2022/06/24 10:06:46;;;;;;;2.53;2.08;;;;;;;;;;4983899;28;20044;-78
2022/06/24 10:09:13;;;;;;;4.25;2.20;;;;;;;;;;5018570;28;20091;-79
2022/06/24 10:11:42;;;;;;;3.70;2.17;;;;;;;;;;5016599;28;20058;-78
2022/06/24 10:14:08;;;;;;;2.72;1.92;;;;;;;;;;4998434;28;20022;-80
2022/06/24 10:16:35;;;;;;;2.72;2.13;;;;;;;;;;4999165;28;20109;-80
2022/06/24 10:19:02;;;;;;;4.10;2.40;;;;;;;;;;4993358;28;20451;-79
2022/06/24 10:21:27;;;;;;;4.13;2.35;;;;;;;;;;4978552;28;20030;-79
2022/06/24 10:23:53;;;;;;;2.90;2.50;;;;;;;;;;4995495;28;20503;-79
2022/06/24 10:26:29;;;;;;;2.70;2.47;;;;;;;;;;4996275;28;20030;-79
2022/06/24 10:29:04;;;;;;;3.75;2.50;;;;;;;;;;4958266;28;20233;-79
2022/06/24 10:31:45;;;;;;;2.88;2.35;;;;;;;;;;4995750;28;20195;-79
2022/06/24 10:34:30;;;;;;;2.72;2.28;;;;;;;;;;4978057;28;20022;-79
2022/06/24 10:37:23;;;;;;;5.10;2.50;;;;;;;;;;4962086;28;20033;-79
2022/06/24 10:39:51;;;;;;;3.20;2.60;;;;;;;;;;4977898;28;20073;-79
2022/06/24 10:42:20;;;;;;;2.40;2.15;;;;;;;;;;4995690;28;20052;-77
2022/06/24 10:45:01;;;;;;;5.68;1.90;;;;;;;;;;4978279;28;20034;-79
2022/06/24 10:47:34;;;;;;;3.30;2.22;;;;;;;;;;4979275;28;20061;-78
2022/06/24 10:50:02;;;;;;;5.28;2.45;;;;;;;;;;4996267;28;20486;-79
2022/06/24 10:52:46;;;;;;;3.45;1.77;;;;;;;;;;4997853;28;20026;-78
2022/06/24 10:55:15;;;;;;;5.60;2.10;;;;;;;;;;5001113;28;20030;-78
2022/06/24 10:57:41;;;;;;;7.82;2.17;;;;;;;;;;5001366;28;20026;-78
2022/06/24 11:00:11;;;;;;;8.63;2.50;;;;;;;;;;4981449;28;20546;-77
2022/06/24 11:02:36;;;;;;;5.40;1.80;;;;;;;;;;4996408;28;20393;-78
2022/06/24 11:05:03;;;;;;;4.45;1.67;;;;;;;;;;4977969;28;20038;-78
2022/06/24 11:07:29;;;;;;;8.50;2.10;;;;;;;;;;4977912;28;20389;-78
2022/06/24 11:09:54;;;;;;;3.88;1.80;;;;;;;;;;4978452;28;20189;-78
2022/06/24 11:12:28;;;;;;;10.93;1.80;;;;;;;;;;4977894;28;20038;-78
2022/06/24 11:14:53;;;;;;;4.18;2.00;;;;;;;;;;4978157;28;20026;-80
2022/06/24 11:17:25;;;;;;;3.95;2.30;;;;;;;;;;4977755;28;20391;-79
2022/06/24 11:19:52;;;;;;;4.03;1.90;;;;;;;;;;4962004;28;20583;-80
2022/06/24 11:22:17;;;;;;;3.67;1.70;;;;;;;;;;4945716;28;20104;-80
2022/06/24 11:24:46;;;;;;;9.88;2.10;;;;;;;;;;4961698;28;20066;-80
2022/06/24 11:27:11;;;;;;;3.17;1.98;;;;;;;;;;4961271;28;20086;-78
2022/06/24 11:29:56;;;;;;;12.85;2.90;;;;;;;;;;4995261;28;20109;-78
2022/06/24 11:32:22;;;;;;;9.60;2.20;;;;;;;;;;4995341;28;20450;-78
2022/06/24 11:34:48;;;;;;;4.60;2.10;;;;;;;;;;4978062;28;20133;-79
2022/06/24 11:37:19;;;;;;;4.70;2.22;;;;;;;;;;4961609;28;20037;-78
2022/06/24 11:39:45;;;;;;;13.43;2.78;;;;;;;;;;4979365;28;20034;-79
2022/06/24 11:42:10;;;;;;;9.45;2.22;;;;;;;;;;4982705;28;20038;-79
2022/06/24 11:44:37;;;;;;;5.40;1.98;;;;;;;;;;4982916;28;20034;-78
2022/06/24 11:47:05;;;;;;;7.95;2.70;;;;;;;;;;4995016;28;20030;-78
2022/06/24 11:49:32;;;;;;;4.53;2.00;;;;;;;;;;4977992;28;20390;-78
2022/06/24 11:51:57;;;;;;;3.35;2.00;;;;;;;;;;4961291;28;20026;-78
2022/06/24 11:54:28;;;;;;;5.18;1.80;;;;;;;;;;4977227;28;20031;-78
2022/06/24 11:56:53;;;;;;;5.53;2.30;;;;;;;;;;4977404;28;20101;-78
2022/06/24 11:59:23;;;;;;;5.60;2.10;;;;;;;;;;4977697;28;20452;-78
2022/06/24 12:01:49;;;;;;;4.75;2.22;;;;;;;;;;4977066;28;20041;-78
2022/06/24 12:04:15;;;;;;;3.17;1.77;;;;;;;;;;4960960;28;20030;-78
2022/06/24 12:06:41;;;;;;;3.17;1.80;;;;;;;;;;4961263;28;20345;-77
2022/06/24 12:09:08;;;;;;;2.50;1.73;;;;;;;;;;4960795;28;20034;-77
2022/06/24 12:11:41;;;;;;;2.17;1.77;;;;;;;;;;4960648;28;20038;-79
2022/06/24 12:14:09;;;;;;;5.18;2.20;;;;;;;;;;4976707;28;20026;-77
2022/06/24 12:16:56;;;;;;;3.08;2.00;;;;;;;;;;4994316;28;20532;-77
2022/06/24 12:19:22;;;;;;;5.28;2.47;;;;;;;;;;4994097;28;20081;-78
2022/06/24 12:21:48;;;;;;;3.83;1.90;;;;;;;;;;4945188;28;20026;-78
2022/06/24 12:24:23;;;;;;;4.97;2.50;;;;;;;;;;4945032;28;20036;-76
2022/06/24 12:26:54;;;;;;;3.75;2.03;;;;;;;;;;4961009;28;20026;-78
2022/06/24 12:29:36;;;;;;;5.22;2.35;;;;;;;;;;4960889;28;20104;-79
2022/06/24 12:32:03;;;;;;;8.75;4.28;;;;;;;;;;4960333;28;20026;-79
2022/06/24 12:34:30;;;;;;;8.00;3.92;;;;;;;;;;4994518;28;20026;-78
2022/06/24 12:37:00;;;;;;;8.52;4.03;;;;;;;;;;4993980;28;20486;-79
2022/06/24 12:39:34;;;;;;;6.13;3.95;;;;;;;;;;4976257;28;20112;-81
2022/06/24 12:42:00;;;;;;;11.30;5.97;;;;;;;;;;4960122;28;20041;-81
2022/06/24 12:44:45;;;;;;;9.23;3.95;;;;;;;;;;4958250;28;20034;-80
2022/06/24 12:52:44;;;;;;;8.05;3.92;;;;;;;;;;4978092;28;20052;-81
2022/06/24 12:55:15;;;;;;;6.97;4.22;;;;;;;;;;4975446;28;20034;-80
2022/06/24 12:57:41;;;;;;;6.30;4.45;;;;;;;;;;4993016;28;20026;-82
2022/06/24 13:00:09;;;;;;;7.22;4.53;;;;;;;;;;4975849;28;20114;-82
2022/06/24 13:02:45;;;;;;;10.52;4.82;;;;;;;;;;4960624;28;20098;-82
2022/06/24 13:05:11;;;;;;;11.40;4.70;;;;;;;;;;4981191;28;20030;-81
2022/06/24 13:07:37;;;;;;;8.98;4.60;;;;;;;;;;4975294;28;20034;-81
2022/06/24 13:10:04;;;;;;;6.53;4.07;;;;;;;;;;4975024;28;20054;-82
2022/06/24 13:12:30;;;;;;;5.90;3.78;;;;;;;;;;4943195;28;20030;-81
2022/06/24 13:14:56;;;;;;;4.32;3.85;;;;;;;;;;4974960;28;20037;-81
2022/06/24 13:17:21;;;;;;;4.95;3.78;;;;;;;;;;4992306;28;20482;-82
2022/06/24 13:19:47;;;;;;;5.25;3.85;;;;;;;;;;4959058;28;20395;-82
2022/06/24 13:22:13;;;;;;;5.20;3.60;;;;;;;;;;4942846;28;20034;-81
2022/06/24 13:24:38;;;;;;;3.45;3.15;;;;;;;;;;4958924;28;20034;-81
2022/06/24 13:27:05;;;;;;;6.05;3.03;;;;;;;;;;4974493;28;20384;-82
2022/06/24 13:29:31;;;;;;;3.97;2.78;;;;;;;;;;4974860;28;20034;-81
2022/06/24 13:31:56;;;;;;;4.75;3.60;;;;;;;;;;4975060;28;20049;-82
2022/06/24 13:34:21;;;;;;;4.32;3.08;;;;;;;;;;4992720;28;20027;-81
2022/06/24 13:36:47;;;;;;;4.15;3.10;;;;;;;;;;4994061;28;20035;-81
2022/06/24 13:39:12;;;;;;;4.05;3.22;;;;;;;;;;4974630;28;20061;-81
2022/06/24 13:41:37;;;;;;;4.28;3.20;;;;;;;;;;4975080;28;20081;-80
2022/06/24 13:44:03;;;;;;;3.22;2.92;;;;;;;;;;4976185;28;20105;-81
2022/06/24 13:46:28;;;;;;;5.60;3.45;;;;;;;;;;4944975;28;20030;-81
2022/06/24 13:48:58;;;;;;;5.82;3.60;;;;;;;;;;5006045;28;20064;-80
2022/06/24 13:51:24;;;;;;;6.20;3.38;;;;;;;;;;4995629;28;20026;-80
2022/06/24 13:53:49;;;;;;;4.03;3.30;;;;;;;;;;4960464;28;20443;-80
2022/06/24 13:56:15;;;;;;;4.53;2.80;;;;;;;;;;4975308;28;20030;-80
2022/06/24 13:58:41;;;;;;;7.38;3.25;;;;;;;;;;4993018;28;20102;-80
2022/06/24 14:01:06;;;;;;;4.30;2.83;;;;;;;;;;4993132;28;20046;-80
2022/06/24 14:03:32;;;;;;;6.50;3.38;;;;;;;;;;4975265;28;20395;-79
2022/06/24 14:05:59;;;;;;;4.70;3.17;;;;;;;;;;4996410;28;20034;-81
2022/06/24 14:08:25;;;;;;;7.30;3.40;;;;;;;;;;4963874;28;20030;-80
2022/06/24 14:10:50;;;;;;;4.43;2.95;;;;;;;;;;4997207;28;20101;-80
2022/06/24 14:13:16;;;;;;;5.10;3.15;;;;;;;;;;4996923;28;20037;-80
2022/06/24 14:15:41;;;;;;;8.23;2.88;;;;;;;;;;4996581;28;20057;-80
2022/06/24 14:18:07;;;;;;;5.50;2.70;;;;;;;;;;4983006;28;20084;-80
2022/06/24 14:20:33;;;;;;;14.77;2.67;;;;;;;;;;4980188;28;20030;-80
2022/06/24 14:25:42;;;;;;;6.35;2.92;;;;;;;;;;4998292;28;20130;-80
2022/06/24 14:28:07;;;;;;;6.45;3.08;;;;;;;;;;4963335;28;20535;-80
2022/06/24 14:30:33;;;;;;;5.35;2.90;;;;;;;;;;4962919;28;20065;-79
2022/06/24 14:32:58;;;;;;;2.67;2.42;;;;;;;;;;4963036;28;20030;-80
2022/06/24 14:35:24;;;;;;;4.05;2.97;;;;;;;;;;4979106;28;20026;-80
2022/06/24 14:40:34;;;;;;;5.00;2.80;;;;;;;;;;4983860;28;20088;-80
2022/06/24 14:43:03;;;;;;;3.80;3.20;;;;;;;;;;4980393;28;20157;-80
2022/06/24 14:45:30;;;;;;;4.75;3.15;;;;;;;;;;4949829;28;20035;-81
2022/06/24 14:47:58;;;;;;;3.75;2.95;;;;;;;;;;4982321;28;20155;-79
2022/06/24 14:50:24;;;;;;;6.88;3.58;;;;;;;;;;4998654;28;20383;-81
2022/06/24 14:52:50;;;;;;;5.43;3.42;;;;;;;;;;4963456;28;20109;-80
2022/06/24 14:55:15;;;;;;;4.63;3.40;;;;;;;;;;4978747;28;20475;-80
2022/06/24 14:57:40;;;;;;;6.55;4.00;;;;;;;;;;4979459;28;20053;-79
2022/06/24 15:00:07;;;;;;;6.97;3.58;;;;;;;;;;4997454;28;20031;-80
2022/06/24 15:02:32;;;;;;;4.18;3.30;;;;;;;;;;4981442;28;20034;-81
2022/06/24 15:04:57;;;;;;;4.00;3.10;;;;;;;;;;4998352;28;20057;-79
2022/06/24 15:07:23;;;;;;;5.45;3.60;;;;;;;;;;4999976;28;20168;-80